sensor_id;sensor_type;location;lat;lon;timestamp;P1;durP1;ratioP1;P2;durP2;ratioP2
9424;SDS011;17139;52.140;11.636;2023-06-10T00:01:49;3.55;;;3.30;;
9424;SDS011;17139;52.140;11.636;2023-06-10T00:04:16;9.70;;;3.30;;
9424;SDS011;17139;52.140;11.636;2023-06-10T00:06:43;4.45;;;2.40;;
9424;SDS011;17139;52.140;11.636;2023-06-10T00:09:13;3.28;;;2.25;;
9424;SDS011;17139;52.140;11.636;2023-06-10T00:11:42;4.97;;;3.85;;
9424;SDS011;17139;52.140;11.636;2023-06-10T00:14:09;3.60;;;3.35;;
9424;SDS011;17139;52.140;11.636;2023-06-10T00:16:36;6.30;;;3.22;;
9424;SDS011;17139;52.140;11.636;2023-06-10T00:19:03;4.32;;;3.47;;
9424;SDS011;17139;52.140;11.636;2023-06-10T00:21:32;3.33;;;2.97;;
9424;SDS011;17139;52.140;11.636;2023-06-10T00:24:02;3.17;;;2.80;;
9424;SDS011;17139;52.140;11.636;2023-06-10T00:26:30;3.85;;;3.28;;
9424;SDS011;17139;52.140;11.636;2023-06-10T00:28:58;9.73;;;4.50;;
9424;SDS011;17139;52.140;11.636;2023-06-10T00:31:25;5.88;;;4.40;;
9424;SDS011;17139;52.140;11.636;2023-06-10T00:33:52;4.10;;;3.75;;
9424;SDS011;17139;52.140;11.636;2023-06-10T00:36:20;3.83;;;3.05;;
9424;SDS011;17139;52.140;11.636;2023-06-10T00:38:47;2.90;;;2.70;;
9424;SDS011;17139;52.140;11.636;2023-06-10T00:41:14;3.05;;;2.95;;
9424;SDS011;17139;52.140;11.636;2023-06-10T00:43:41;4.03;;;3.67;;
9424;SDS011;17139;52.140;11.636;2023-06-10T00:46:09;5.20;;;3.95;;
9424;SDS011;17139;52.140;11.636;2023-06-10T00:48:38;6.67;;;4.50;;
9424;SDS011;17139;52.140;11.636;2023-06-10T00:51:06;3.92;;;3.42;;
9424;SDS011;17139;52.140;11.636;2023-06-10T00:53:34;3.70;;;3.40;;
9424;SDS011;17139;52.140;11.636;2023-06-10T00:56:03;3.33;;;3.08;;
9424;SDS011;17139;52.140;11.636;2023-06-10T00:58:30;3.40;;;3.17;;
9424;SDS011;17139;52.140;11.636;2023-06-10T01:00:57;3.47;;;3.08;;
9424;SDS011;17139;52.140;11.636;2023-06-10T01:03:26;4.57;;;3.22;;
9424;SDS011;17139;52.140;11.636;2023-06-10T01:06:01;2.97;;;2.63;;
9424;SDS011;17139;52.140;11.636;2023-06-10T01:08:37;4.70;;;4.30;;
9424;SDS011;17139;52.140;11.636;2023-06-10T01:11:11;4.30;;;3.70;;
9424;SDS011;17139;52.140;11.636;2023-06-10T01:13:43;3.83;;;1.90;;
9424;SDS011;17139;52.140;11.636;2023-06-10T01:16:12;3.17;;;2.97;;
9424;SDS011;17139;52.140;11.636;2023-06-10T01:18:41;3.95;;;2.83;;
9424;SDS011;17139;52.140;11.636;2023-06-10T01:21:08;4.00;;;3.72;;
9424;SDS011;17139;52.140;11.636;2023-06-10T01:23:39;4.38;;;4.03;;
9424;SDS011;17139;52.140;11.636;2023-06-10T01:26:07;5.38;;;4.40;;
9424;SDS011;17139;52.140;11.636;2023-06-10T01:28:38;5.82;;;3.33;;
9424;SDS011;17139;52.140;11.636;2023-06-10T01:31:13;3.90;;;3.70;;
9424;SDS011;17139;52.140;11.636;2023-06-10T01:33:47;3.50;;;2.70;;
9424;SDS011;17139;52.140;11.636;2023-06-10T01:36:19;2.95;;;2.80;;
9424;SDS011;17139;52.140;11.636;2023-06-10T01:38:48;6.20;;;5.22;;
9424;SDS011;17139;52.140;11.636;2023-06-10T01:41:19;2.97;;;2.72;;
9424;SDS011;17139;52.140;11.636;2023-06-10T01:43:47;3.85;;;3.55;;
9424;SDS011;17139;52.140;11.636;2023-06-10T01:46:15;3.95;;;3.65;;
9424;SDS011;17139;52.140;11.636;2023-06-10T01:48:44;3.97;;;3.63;;
9424;SDS011;17139;52.140;11.636;2023-06-10T01:51:11;6.28;;;3.38;;
9424;SDS011;17139;52.140;11.636;2023-06-10T01:53:40;3.45;;;3.25;;
9424;SDS011;17139;52.140;11.636;2023-06-10T01:56:07;3.58;;;3.33;;
9424;SDS011;17139;52.140;11.636;2023-06-10T01:58:34;5.65;;;4.28;;
9424;SDS011;17139;52.140;11.636;2023-06-10T02:01:01;4.50;;;4.20;;
9424;SDS011;17139;52.140;11.636;2023-06-10T02:03:28;4.40;;;3.78;;
9424;SDS011;17139;52.140;11.636;2023-06-10T02:05:55;3.55;;;3.25;;
9424;SDS011;17139;52.140;11.636;2023-06-10T02:08:22;4.63;;;4.25;;
9424;SDS011;17139;52.140;11.636;2023-06-10T02:10:50;11.30;;;3.80;;
9424;SDS011;17139;52.140;11.636;2023-06-10T02:13:17;4.38;;;3.53;;
9424;SDS011;17139;52.140;11.636;2023-06-10T02:15:44;6.38;;;5.20;;
9424;SDS011;17139;52.140;11.636;2023-06-10T02:18:11;4.43;;;4.03;;
9424;SDS011;17139;52.140;11.636;2023-06-10T02:20:38;4.00;;;3.28;;
9424;SDS011;17139;52.140;11.636;2023-06-10T02:23:05;4.32;;;3.53;;
9424;SDS011;17139;52.140;11.636;2023-06-10T02:25:32;4.03;;;3.80;;
9424;SDS011;17139;52.140;11.636;2023-06-10T02:28:01;4.70;;;3.70;;
9424;SDS011;17139;52.140;11.636;2023-06-10T02:30:28;4.55;;;4.10;;
9424;SDS011;17139;52.140;11.636;2023-06-10T02:32:55;4.60;;;3.88;;
9424;SDS011;17139;52.140;11.636;2023-06-10T02:35:24;4.67;;;4.07;;
9424;SDS011;17139;52.140;11.636;2023-06-10T02:37:51;5.50;;;3.58;;
9424;SDS011;17139;52.140;11.636;2023-06-10T02:40:18;4.15;;;3.30;;
9424;SDS011;17139;52.140;11.636;2023-06-10T02:42:45;3.88;;;3.63;;
9424;SDS011;17139;52.140;11.636;2023-06-10T02:45:13;5.40;;;3.22;;
9424;SDS011;17139;52.140;11.636;2023-06-10T02:47:41;3.22;;;2.78;;
9424;SDS011;17139;52.140;11.636;2023-06-10T02:50:08;7.50;;;4.90;;
9424;SDS011;17139;52.140;11.636;2023-06-10T02:52:36;3.95;;;3.50;;
9424;SDS011;17139;52.140;11.636;2023-06-10T02:55:03;2.85;;;2.60;;
9424;SDS011;17139;52.140;11.636;2023-06-10T02:57:30;5.82;;;3.45;;
9424;SDS011;17139;52.140;11.636;2023-06-10T02:59:57;3.40;;;3.00;;
9424;SDS011;17139;52.140;11.636;2023-06-10T03:02:26;5.38;;;3.95;;
9424;SDS011;17139;52.140;11.636;2023-06-10T03:04:54;5.13;;;3.40;;
9424;SDS011;17139;52.140;11.636;2023-06-10T03:07:21;3.78;;;3.47;;
9424;SDS011;17139;52.140;11.636;2023-06-10T03:09:49;4.97;;;4.53;;
9424;SDS011;17139;52.140;11.636;2023-06-10T03:12:16;8.27;;;4.55;;
9424;SDS011;17139;52.140;11.636;2023-06-10T03:14:43;4.50;;;4.20;;
9424;SDS011;17139;52.140;11.636;2023-06-10T03:17:10;3.88;;;3.65;;
9424;SDS011;17139;52.140;11.636;2023-06-10T03:19:38;4.32;;;3.83;;
9424;SDS011;17139;52.140;11.636;2023-06-10T03:22:08;3.97;;;3.78;;
9424;SDS011;17139;52.140;11.636;2023-06-10T03:24:36;5.47;;;4.60;;
9424;SDS011;17139;52.140;11.636;2023-06-10T03:27:05;6.68;;;5.30;;
9424;SDS011;17139;52.140;11.636;2023-06-10T03:29:33;6.70;;;4.60;;
9424;SDS011;17139;52.140;11.636;2023-06-10T03:32:00;4.30;;;3.92;;
9424;SDS011;17139;52.140;11.636;2023-06-10T03:34:27;3.47;;;3.05;;
9424;SDS011;17139;52.140;11.636;2023-06-10T03:36:56;6.72;;;4.47;;
9424;SDS011;17139;52.140;11.636;2023-06-10T03:39:23;4.20;;;3.83;;
9424;SDS011;17139;52.140;11.636;2023-06-10T03:41:54;4.97;;;4.20;;
9424;SDS011;17139;52.140;11.636;2023-06-10T03:44:21;5.43;;;4.65;;
9424;SDS011;17139;52.140;11.636;2023-06-10T03:46:48;4.47;;;4.15;;
9424;SDS011;17139;52.140;11.636;2023-06-10T03:49:15;6.05;;;4.05;;
9424;SDS011;17139;52.140;11.636;2023-06-10T03:51:42;6.22;;;4.18;;
9424;SDS011;17139;52.140;11.636;2023-06-10T03:54:10;6.15;;;4.38;;
9424;SDS011;17139;52.140;11.636;2023-06-10T03:56:37;3.78;;;3.58;;
9424;SDS011;17139;52.140;11.636;2023-06-10T03:59:05;4.25;;;3.85;;
9424;SDS011;17139;52.140;11.636;2023-06-10T04:01:32;4.28;;;3.92;;
9424;SDS011;17139;52.140;11.636;2023-06-10T04:04:00;3.83;;;3.53;;
9424;SDS011;17139;52.140;11.636;2023-06-10T04:06:27;6.22;;;3.97;;
9424;SDS011;17139;52.140;11.636;2023-06-10T04:08:55;5.80;;;5.30;;
9424;SDS011;17139;52.140;11.636;2023-06-10T04:11:24;4.75;;;4.38;;
9424;SDS011;17139;52.140;11.636;2023-06-10T04:13:51;4.35;;;4.05;;
9424;SDS011;17139;52.140;11.636;2023-06-10T04:16:18;5.90;;;4.00;;
9424;SDS011;17139;52.140;11.636;2023-06-10T04:18:46;5.07;;;4.35;;
9424;SDS011;17139;52.140;11.636;2023-06-10T04:21:13;8.00;;;4.45;;
9424;SDS011;17139;52.140;11.636;2023-06-10T04:23:40;6.13;;;5.38;;
9424;SDS011;17139;52.140;11.636;2023-06-10T04:26:07;6.45;;;5.57;;
9424;SDS011;17139;52.140;11.636;2023-06-10T04:28:36;4.78;;;4.00;;
9424;SDS011;17139;52.140;11.636;2023-06-10T04:31:03;4.32;;;4.13;;
9424;SDS011;17139;52.140;11.636;2023-06-10T04:33:30;4.95;;;4.55;;
9424;SDS011;17139;52.140;11.636;2023-06-10T04:35:57;4.93;;;4.53;;
9424;SDS011;17139;52.140;11.636;2023-06-10T04:38:24;4.70;;;4.38;;
9424;SDS011;17139;52.140;11.636;2023-06-10T04:40:52;5.90;;;5.40;;
9424;SDS011;17139;52.140;11.636;2023-06-10T04:43:22;4.45;;;4.15;;
9424;SDS011;17139;52.140;11.636;2023-06-10T04:45:50;5.00;;;4.60;;
9424;SDS011;17139;52.140;11.636;2023-06-10T04:48:17;4.40;;;4.07;;
9424;SDS011;17139;52.140;11.636;2023-06-10T04:50:44;6.32;;;4.75;;
9424;SDS011;17139;52.140;11.636;2023-06-10T04:53:12;6.78;;;4.50;;
9424;SDS011;17139;52.140;11.636;2023-06-10T04:55:39;4.32;;;4.03;;
9424;SDS011;17139;52.140;11.636;2023-06-10T04:58:06;4.75;;;4.43;;
9424;SDS011;17139;52.140;11.636;2023-06-10T05:00:33;5.00;;;4.60;;
9424;SDS011;17139;52.140;11.636;2023-06-10T05:03:01;5.22;;;4.22;;
9424;SDS011;17139;52.140;11.636;2023-06-10T05:05:28;5.45;;;4.40;;
9424;SDS011;17139;52.140;11.636;2023-06-10T05:07:55;4.90;;;4.43;;
9424;SDS011;17139;52.140;11.636;2023-06-10T05:10:23;4.57;;;4.28;;
9424;SDS011;17139;52.140;11.636;2023-06-10T05:12:50;4.15;;;3.92;;
9424;SDS011;17139;52.140;11.636;2023-06-10T05:15:17;4.80;;;4.40;;
9424;SDS011;17139;52.140;11.636;2023-06-10T05:17:44;5.10;;;4.60;;
9424;SDS011;17139;52.140;11.636;2023-06-10T05:20:12;5.70;;;4.85;;
9424;SDS011;17139;52.140;11.636;2023-06-10T05:22:40;4.45;;;4.22;;
9424;SDS011;17139;52.140;11.636;2023-06-10T05:25:07;6.38;;;4.30;;
9424;SDS011;17139;52.140;11.636;2023-06-10T05:27:35;4.35;;;4.00;;
9424;SDS011;17139;52.140;11.636;2023-06-10T05:30:02;4.25;;;3.95;;
9424;SDS011;17139;52.140;11.636;2023-06-10T05:32:29;5.30;;;3.90;;
9424;SDS011;17139;52.140;11.636;2023-06-10T05:34:56;4.47;;;4.13;;
9424;SDS011;17139;52.140;11.636;2023-06-10T05:37:26;4.72;;;4.32;;
9424;SDS011;17139;52.140;11.636;2023-06-10T05:39:59;4.65;;;4.35;;
9424;SDS011;17139;52.140;11.636;2023-06-10T05:42:26;4.50;;;4.20;;
9424;SDS011;17139;52.140;11.636;2023-06-10T05:44:53;5.45;;;4.13;;
9424;SDS011;17139;52.140;11.636;2023-06-10T05:47:20;10.68;;;4.15;;
9424;SDS011;17139;52.140;11.636;2023-06-10T05:49:47;4.47;;;4.13;;
9424;SDS011;17139;52.140;11.636;2023-06-10T05:52:15;4.18;;;3.83;;
9424;SDS011;17139;52.140;11.636;2023-06-10T05:54:43;4.70;;;3.80;;
9424;SDS011;17139;52.140;11.636;2023-06-10T05:57:10;5.68;;;4.30;;
9424;SDS011;17139;52.140;11.636;2023-06-10T05:59:37;5.63;;;4.75;;
9424;SDS011;17139;52.140;11.636;2023-06-10T06:02:05;5.78;;;4.03;;
9424;SDS011;17139;52.140;11.636;2023-06-10T06:04:32;4.22;;;3.47;;
9424;SDS011;17139;52.140;11.636;2023-06-10T06:06:59;3.88;;;3.58;;
9424;SDS011;17139;52.140;11.636;2023-06-10T06:09:26;3.92;;;3.53;;
9424;SDS011;17139;52.140;11.636;2023-06-10T06:11:55;4.10;;;3.80;;
9424;SDS011;17139;52.140;11.636;2023-06-10T06:14:22;4.93;;;4.07;;
9424;SDS011;17139;52.140;11.636;2023-06-10T06:16:49;4.55;;;4.13;;
9424;SDS011;17139;52.140;11.636;2023-06-10T06:19:16;6.30;;;4.47;;
9424;SDS011;17139;52.140;11.636;2023-06-10T06:21:43;4.50;;;4.20;;
9424;SDS011;17139;52.140;11.636;2023-06-10T06:24:10;4.40;;;4.00;;
9424;SDS011;17139;52.140;11.636;2023-06-10T06:26:37;4.00;;;3.80;;
9424;SDS011;17139;52.140;11.636;2023-06-10T06:29:05;3.88;;;3.65;;
9424;SDS011;17139;52.140;11.636;2023-06-10T06:31:32;5.28;;;4.32;;
9424;SDS011;17139;52.140;11.636;2023-06-10T06:33:59;4.53;;;4.22;;
9424;SDS011;17139;52.140;11.636;2023-06-10T06:36:26;4.80;;;4.28;;
9424;SDS011;17139;52.140;11.636;2023-06-10T06:38:53;3.92;;;3.60;;
9424;SDS011;17139;52.140;11.636;2023-06-10T06:41:20;5.60;;;4.40;;
9424;SDS011;17139;52.140;11.636;2023-06-10T06:43:47;4.90;;;4.43;;
9424;SDS011;17139;52.140;11.636;2023-06-10T06:46:16;5.03;;;4.63;;
9424;SDS011;17139;52.140;11.636;2023-06-10T06:48:43;3.63;;;3.42;;
9424;SDS011;17139;52.140;11.636;2023-06-10T06:51:10;5.43;;;4.63;;
9424;SDS011;17139;52.140;11.636;2023-06-10T06:53:37;4.55;;;3.97;;
9424;SDS011;17139;52.140;11.636;2023-06-10T06:56:09;9.07;;;4.28;;
9424;SDS011;17139;52.140;11.636;2023-06-10T06:58:36;4.40;;;3.90;;
9424;SDS011;17139;52.140;11.636;2023-06-10T07:01:03;8.55;;;6.85;;
9424;SDS011;17139;52.140;11.636;2023-06-10T07:03:31;4.45;;;4.05;;
9424;SDS011;17139;52.140;11.636;2023-06-10T07:05:58;4.18;;;3.88;;
9424;SDS011;17139;52.140;11.636;2023-06-10T07:08:25;5.13;;;4.50;;
9424;SDS011;17139;52.140;11.636;2023-06-10T07:10:52;8.88;;;5.20;;
9424;SDS011;17139;52.140;11.636;2023-06-10T07:13:19;6.05;;;5.10;;
9424;SDS011;17139;52.140;11.636;2023-06-10T07:15:46;5.30;;;4.53;;
9424;SDS011;17139;52.140;11.636;2023-06-10T07:18:14;5.38;;;4.95;;
9424;SDS011;17139;52.140;11.636;2023-06-10T07:20:43;6.93;;;4.75;;
9424;SDS011;17139;52.140;11.636;2023-06-10T07:23:10;6.53;;;4.68;;
9424;SDS011;17139;52.140;11.636;2023-06-10T07:25:37;5.30;;;4.90;;
9424;SDS011;17139;52.140;11.636;2023-06-10T07:28:04;4.80;;;4.53;;
9424;SDS011;17139;52.140;11.636;2023-06-10T07:30:31;6.50;;;5.40;;
9424;SDS011;17139;52.140;11.636;2023-06-10T07:32:58;7.40;;;5.65;;
9424;SDS011;17139;52.140;11.636;2023-06-10T07:35:27;5.43;;;4.97;;
9424;SDS011;17139;52.140;11.636;2023-06-10T07:37:55;5.32;;;4.97;;
9424;SDS011;17139;52.140;11.636;2023-06-10T07:40:23;5.78;;;4.53;;
9424;SDS011;17139;52.140;11.636;2023-06-10T07:42:50;6.10;;;4.60;;
9424;SDS011;17139;52.140;11.636;2023-06-10T07:45:19;5.00;;;4.60;;
9424;SDS011;17139;52.140;11.636;2023-06-10T07:47:46;9.02;;;5.32;;
9424;SDS011;17139;52.140;11.636;2023-06-10T07:50:13;4.97;;;4.68;;
9424;SDS011;17139;52.140;11.636;2023-06-10T07:52:40;6.15;;;5.60;;
9424;SDS011;17139;52.140;11.636;2023-06-10T07:55:08;6.75;;;6.10;;
9424;SDS011;17139;52.140;11.636;2023-06-10T07:57:35;9.55;;;5.10;;
9424;SDS011;17139;52.140;11.636;2023-06-10T08:00:04;5.57;;;5.18;;
9424;SDS011;17139;52.140;11.636;2023-06-10T08:02:32;10.77;;;5.88;;
9424;SDS011;17139;52.140;11.636;2023-06-10T08:04:59;5.30;;;4.90;;
9424;SDS011;17139;52.140;11.636;2023-06-10T08:07:26;10.20;;;5.78;;
9424;SDS011;17139;52.140;11.636;2023-06-10T08:09:52;5.97;;;5.47;;
9424;SDS011;17139;52.140;11.636;2023-06-10T08:12:21;5.57;;;4.72;;
9424;SDS011;17139;52.140;11.636;2023-06-10T08:14:48;7.20;;;4.97;;
9424;SDS011;17139;52.140;11.636;2023-06-10T08:17:15;8.02;;;5.18;;
9424;SDS011;17139;52.140;11.636;2023-06-10T08:19:42;6.32;;;5.78;;
9424;SDS011;17139;52.140;11.636;2023-06-10T08:22:09;5.95;;;5.43;;
9424;SDS011;17139;52.140;11.636;2023-06-10T08:24:36;5.68;;;5.25;;
9424;SDS011;17139;52.140;11.636;2023-06-10T08:27:03;6.78;;;6.07;;
9424;SDS011;17139;52.140;11.636;2023-06-10T08:29:33;5.88;;;5.38;;
9424;SDS011;17139;52.140;11.636;2023-06-10T08:32:00;5.20;;;4.70;;
9424;SDS011;17139;52.140;11.636;2023-06-10T08:34:27;7.90;;;5.47;;
9424;SDS011;17139;52.140;11.636;2023-06-10T08:36:54;6.25;;;5.30;;
9424;SDS011;17139;52.140;11.636;2023-06-10T08:39:21;9.63;;;5.43;;
9424;SDS011;17139;52.140;11.636;2023-06-10T08:41:50;7.13;;;5.47;;
9424;SDS011;17139;52.140;11.636;2023-06-10T08:44:26;5.47;;;4.97;;
9424;SDS011;17139;52.140;11.636;2023-06-10T08:46:57;7.03;;;6.05;;
9424;SDS011;17139;52.140;11.636;2023-06-10T08:49:26;5.97;;;5.57;;
9424;SDS011;17139;52.140;11.636;2023-06-10T08:51:58;5.32;;;4.93;;
9424;SDS011;17139;52.140;11.636;2023-06-10T08:54:27;5.10;;;4.70;;
9424;SDS011;17139;52.140;11.636;2023-06-10T08:56:57;6.65;;;6.07;;
9424;SDS011;17139;52.140;11.636;2023-06-10T08:59:26;6.13;;;5.63;;
9424;SDS011;17139;52.140;11.636;2023-06-10T09:01:53;5.80;;;5.30;;
9424;SDS011;17139;52.140;11.636;2023-06-10T09:04:22;7.00;;;5.68;;
9424;SDS011;17139;52.140;11.636;2023-06-10T09:06:51;6.30;;;5.68;;
9424;SDS011;17139;52.140;11.636;2023-06-10T09:09:20;5.82;;;5.40;;
9424;SDS011;17139;52.140;11.636;2023-06-10T09:11:49;6.15;;;5.65;;
9424;SDS011;17139;52.140;11.636;2023-06-10T09:14:15;10.70;;;5.68;;
9424;SDS011;17139;52.140;11.636;2023-06-10T09:16:42;5.20;;;4.82;;
9424;SDS011;17139;52.140;11.636;2023-06-10T09:19:11;5.85;;;5.30;;
9424;SDS011;17139;52.140;11.636;2023-06-10T09:21:40;5.57;;;5.35;;
9424;SDS011;17139;52.140;11.636;2023-06-10T09:24:07;6.35;;;5.75;;
9424;SDS011;17139;52.140;11.636;2023-06-10T09:26:35;7.32;;;5.45;;
9424;SDS011;17139;52.140;11.636;2023-06-10T09:29:05;6.00;;;5.60;;
9424;SDS011;17139;52.140;11.636;2023-06-10T09:31:34;7.13;;;5.47;;
9424;SDS011;17139;52.140;11.636;2023-06-10T09:34:08;5.80;;;5.35;;
9424;SDS011;17139;52.140;11.636;2023-06-10T09:36:36;6.20;;;5.60;;
9424;SDS011;17139;52.140;11.636;2023-06-10T09:39:13;5.25;;;4.95;;
9424;SDS011;17139;52.140;11.636;2023-06-10T09:41:41;9.85;;;5.47;;
9424;SDS011;17139;52.140;11.636;2023-06-10T09:44:09;6.15;;;5.55;;
9424;SDS011;17139;52.140;11.636;2023-06-10T09:46:39;5.78;;;5.32;;
9424;SDS011;17139;52.140;11.636;2023-06-10T09:49:06;5.97;;;5.57;;
9424;SDS011;17139;52.140;11.636;2023-06-10T09:51:33;5.35;;;4.85;;
9424;SDS011;17139;52.140;11.636;2023-06-10T09:54:02;5.45;;;5.05;;
9424;SDS011;17139;52.140;11.636;2023-06-10T09:56:34;5.13;;;4.82;;
9424;SDS011;17139;52.140;11.636;2023-06-10T09:59:02;5.50;;;5.05;;
9424;SDS011;17139;52.140;11.636;2023-06-10T10:01:31;6.30;;;5.70;;
9424;SDS011;17139;52.140;11.636;2023-06-10T10:03:58;8.35;;;5.43;;
9424;SDS011;17139;52.140;11.636;2023-06-10T10:06:26;6.13;;;5.20;;
9424;SDS011;17139;52.140;11.636;2023-06-10T10:08:54;6.57;;;5.05;;
9424;SDS011;17139;52.140;11.636;2023-06-10T10:11:22;5.72;;;5.28;;
9424;SDS011;17139;52.140;11.636;2023-06-10T10:13:53;5.88;;;5.05;;
9424;SDS011;17139;52.140;11.636;2023-06-10T10:16:20;6.32;;;5.53;;
9424;SDS011;17139;52.140;11.636;2023-06-10T10:18:51;6.03;;;5.47;;
9424;SDS011;17139;52.140;11.636;2023-06-10T10:21:22;6.03;;;5.53;;
9424;SDS011;17139;52.140;11.636;2023-06-10T10:23:53;6.38;;;5.50;;
9424;SDS011;17139;52.140;11.636;2023-06-10T10:26:26;7.03;;;5.32;;
9424;SDS011;17139;52.140;11.636;2023-06-10T10:29:01;5.70;;;5.25;;
9424;SDS011;17139;52.140;11.636;2023-06-10T10:31:34;5.80;;;5.40;;
9424;SDS011;17139;52.140;11.636;2023-06-10T10:34:02;5.75;;;5.35;;
9424;SDS011;17139;52.140;11.636;2023-06-10T10:36:33;6.05;;;5.55;;
9424;SDS011;17139;52.140;11.636;2023-06-10T10:39:01;7.53;;;5.28;;
9424;SDS011;17139;52.140;11.636;2023-06-10T10:41:30;5.40;;;5.05;;
9424;SDS011;17139;52.140;11.636;2023-06-10T10:43:59;6.47;;;5.90;;
9424;SDS011;17139;52.140;11.636;2023-06-10T10:46:27;5.75;;;5.45;;
9424;SDS011;17139;52.140;11.636;2023-06-10T10:48:55;6.20;;;5.65;;
9424;SDS011;17139;52.140;11.636;2023-06-10T10:51:24;5.50;;;5.18;;
9424;SDS011;17139;52.140;11.636;2023-06-10T10:54:09;5.85;;;5.45;;
9424;SDS011;17139;52.140;11.636;2023-06-10T10:56:37;5.47;;;5.18;;
9424;SDS011;17139;52.140;11.636;2023-06-10T10:59:06;6.15;;;5.85;;
9424;SDS011;17139;52.140;11.636;2023-06-10T11:01:40;5.45;;;4.93;;
9424;SDS011;17139;52.140;11.636;2023-06-10T11:04:07;5.72;;;5.18;;
9424;SDS011;17139;52.140;11.636;2023-06-10T11:06:35;5.85;;;5.47;;
9424;SDS011;17139;52.140;11.636;2023-06-10T11:09:05;6.30;;;5.70;;
9424;SDS011;17139;52.140;11.636;2023-06-10T11:11:52;5.63;;;5.28;;
9424;SDS011;17139;52.140;11.636;2023-06-10T11:14:27;4.90;;;4.68;;
9424;SDS011;17139;52.140;11.636;2023-06-10T11:16:56;4.63;;;4.43;;
9424;SDS011;17139;52.140;11.636;2023-06-10T11:19:33;6.00;;;4.80;;
9424;SDS011;17139;52.140;11.636;2023-06-10T11:22:02;5.00;;;4.70;;
9424;SDS011;17139;52.140;11.636;2023-06-10T11:24:31;4.97;;;4.57;;
9424;SDS011;17139;52.140;11.636;2023-06-10T11:27:17;5.40;;;4.90;;
9424;SDS011;17139;52.140;11.636;2023-06-10T11:30:00;4.70;;;4.50;;
9424;SDS011;17139;52.140;11.636;2023-06-10T11:32:45;5.28;;;4.82;;
9424;SDS011;17139;52.140;11.636;2023-06-10T11:35:18;4.38;;;4.13;;
9424;SDS011;17139;52.140;11.636;2023-06-10T11:37:47;4.72;;;4.53;;
9424;SDS011;17139;52.140;11.636;2023-06-10T11:40:15;5.00;;;4.65;;
9424;SDS011;17139;52.140;11.636;2023-06-10T11:42:42;4.72;;;4.53;;
9424;SDS011;17139;52.140;11.636;2023-06-10T11:45:14;4.28;;;4.10;;
9424;SDS011;17139;52.140;11.636;2023-06-10T11:47:54;6.57;;;4.82;;
9424;SDS011;17139;52.140;11.636;2023-06-10T11:50:27;4.95;;;4.63;;
9424;SDS011;17139;52.140;11.636;2023-06-10T11:52:55;4.68;;;4.38;;
9424;SDS011;17139;52.140;11.636;2023-06-10T11:55:23;5.03;;;4.30;;
9424;SDS011;17139;52.140;11.636;2023-06-10T11:57:51;4.38;;;4.07;;
9424;SDS011;17139;52.140;11.636;2023-06-10T12:00:24;4.90;;;4.70;;
9424;SDS011;17139;52.140;11.636;2023-06-10T12:02:55;6.95;;;4.70;;
9424;SDS011;17139;52.140;11.636;2023-06-10T12:05:23;5.80;;;4.55;;
9424;SDS011;17139;52.140;11.636;2023-06-10T12:07:51;4.88;;;4.57;;
9424;SDS011;17139;52.140;11.636;2023-06-10T12:10:38;5.05;;;4.63;;
9424;SDS011;17139;52.140;11.636;2023-06-10T12:13:07;4.53;;;4.20;;
9424;SDS011;17139;52.140;11.636;2023-06-10T12:15:35;4.25;;;3.95;;
9424;SDS011;17139;52.140;11.636;2023-06-10T12:18:03;4.75;;;4.28;;
9424;SDS011;17139;52.140;11.636;2023-06-10T12:20:31;5.22;;;4.90;;
9424;SDS011;17139;52.140;11.636;2023-06-10T12:22:59;5.13;;;4.82;;
9424;SDS011;17139;52.140;11.636;2023-06-10T12:25:27;5.17;;;4.80;;
9424;SDS011;17139;52.140;11.636;2023-06-10T12:27:55;4.80;;;4.45;;
9424;SDS011;17139;52.140;11.636;2023-06-10T12:30:23;5.40;;;5.00;;
9424;SDS011;17139;52.140;11.636;2023-06-10T12:32:53;4.80;;;4.18;;
9424;SDS011;17139;52.140;11.636;2023-06-10T12:35:21;4.20;;;4.00;;
9424;SDS011;17139;52.140;11.636;2023-06-10T12:37:57;4.57;;;4.28;;
9424;SDS011;17139;52.140;11.636;2023-06-10T12:40:26;5.20;;;4.80;;
9424;SDS011;17139;52.140;11.636;2023-06-10T12:42:54;4.88;;;4.57;;
9424;SDS011;17139;52.140;11.636;2023-06-10T12:45:27;4.78;;;4.50;;
9424;SDS011;17139;52.140;11.636;2023-06-10T12:48:05;6.45;;;5.43;;
9424;SDS011;17139;52.140;11.636;2023-06-10T12:50:34;5.10;;;4.70;;
9424;SDS011;17139;52.140;11.636;2023-06-10T12:53:02;4.90;;;4.60;;
9424;SDS011;17139;52.140;11.636;2023-06-10T12:55:29;5.32;;;4.85;;
9424;SDS011;17139;52.140;11.636;2023-06-10T12:57:57;5.73;;;4.90;;
9424;SDS011;17139;52.140;11.636;2023-06-10T13:00:25;4.20;;;4.00;;
9424;SDS011;17139;52.140;11.636;2023-06-10T13:02:55;5.13;;;4.70;;
9424;SDS011;17139;52.140;11.636;2023-06-10T13:05:23;5.10;;;4.63;;
9424;SDS011;17139;52.140;11.636;2023-06-10T13:07:50;6.28;;;4.40;;
9424;SDS011;17139;52.140;11.636;2023-06-10T13:10:17;3.55;;;3.45;;
9424;SDS011;17139;52.140;11.636;2023-06-10T13:12:45;5.28;;;4.70;;
9424;SDS011;17139;52.140;11.636;2023-06-10T13:15:13;5.00;;;4.40;;
9424;SDS011;17139;52.140;11.636;2023-06-10T13:17:41;4.68;;;4.38;;
9424;SDS011;17139;52.140;11.636;2023-06-10T13:20:08;4.60;;;4.30;;
9424;SDS011;17139;52.140;11.636;2023-06-10T13:22:37;4.03;;;3.83;;
9424;SDS011;17139;52.140;11.636;2023-06-10T13:25:05;5.63;;;4.65;;
9424;SDS011;17139;52.140;11.636;2023-06-10T13:27:33;3.80;;;3.65;;
9424;SDS011;17139;52.140;11.636;2023-06-10T13:30:00;4.68;;;4.47;;
9424;SDS011;17139;52.140;11.636;2023-06-10T13:32:27;6.13;;;5.72;;
9424;SDS011;17139;52.140;11.636;2023-06-10T13:34:54;4.57;;;4.37;;
9424;SDS011;17139;52.140;11.636;2023-06-10T13:37:22;4.32;;;4.03;;
9424;SDS011;17139;52.140;11.636;2023-06-10T13:39:50;4.47;;;4.28;;
9424;SDS011;17139;52.140;11.636;2023-06-10T13:42:17;4.32;;;4.13;;
9424;SDS011;17139;52.140;11.636;2023-06-10T13:44:45;4.30;;;4.13;;
9424;SDS011;17139;52.140;11.636;2023-06-10T13:47:12;4.55;;;4.22;;
9424;SDS011;17139;52.140;11.636;2023-06-10T13:49:39;4.82;;;4.43;;
9424;SDS011;17139;52.140;11.636;2023-06-10T13:52:07;2.83;;;2.72;;
9424;SDS011;17139;52.140;11.636;2023-06-10T13:54:34;4.32;;;4.13;;
9424;SDS011;17139;52.140;11.636;2023-06-10T13:57:03;4.53;;;4.13;;
9424;SDS011;17139;52.140;11.636;2023-06-10T13:59:31;5.47;;;4.97;;
9424;SDS011;17139;52.140;11.636;2023-06-10T14:01:58;5.15;;;4.75;;
9424;SDS011;17139;52.140;11.636;2023-06-10T14:04:25;4.40;;;4.20;;
9424;SDS011;17139;52.140;11.636;2023-06-10T14:06:52;4.60;;;4.40;;
9424;SDS011;17139;52.140;11.636;2023-06-10T14:09:20;4.53;;;4.13;;
9424;SDS011;17139;52.140;11.636;2023-06-10T14:11:47;4.93;;;4.57;;
9424;SDS011;17139;52.140;11.636;2023-06-10T14:14:15;4.05;;;3.78;;
9424;SDS011;17139;52.140;11.636;2023-06-10T14:16:43;4.40;;;4.00;;
9424;SDS011;17139;52.140;11.636;2023-06-10T14:19:10;4.22;;;3.92;;
9424;SDS011;17139;52.140;11.636;2023-06-10T14:21:37;3.28;;;3.17;;
9424;SDS011;17139;52.140;11.636;2023-06-10T14:24:04;8.57;;;3.28;;
9424;SDS011;17139;52.140;11.636;2023-06-10T14:26:31;3.90;;;3.70;;
9424;SDS011;17139;52.140;11.636;2023-06-10T14:28:58;4.53;;;3.97;;
9424;SDS011;17139;52.140;11.636;2023-06-10T14:31:28;4.10;;;3.90;;
9424;SDS011;17139;52.140;11.636;2023-06-10T14:33:55;4.40;;;4.10;;
9424;SDS011;17139;52.140;11.636;2023-06-10T14:36:22;6.97;;;4.22;;
9424;SDS011;17139;52.140;11.636;2023-06-10T14:38:49;4.43;;;3.53;;
9424;SDS011;17139;52.140;11.636;2023-06-10T14:41:16;4.72;;;4.03;;
9424;SDS011;17139;52.140;11.636;2023-06-10T14:43:43;4.75;;;3.95;;
9424;SDS011;17139;52.140;11.636;2023-06-10T14:46:10;4.45;;;4.15;;
9424;SDS011;17139;52.140;11.636;2023-06-10T14:48:39;4.40;;;4.10;;
9424;SDS011;17139;52.140;11.636;2023-06-10T14:51:06;4.43;;;4.18;;
9424;SDS011;17139;52.140;11.636;2023-06-10T14:53:33;4.57;;;4.00;;
9424;SDS011;17139;52.140;11.636;2023-06-10T14:56:00;3.60;;;3.40;;